Eola, Louisiana
Current Conditions -  °F | °C
As of 8:35 AM on Saturday 20 Dec 2014 (Local Time) from KOPL Reporting Station
Overcast Overcast  
Wind Chill: 41°   Ceiling: 400
Heat Index: 47°   Visibility: 10mi
Dew Point: 46°   Wind: 12mph
Humidity: 96%   Direction: 10°N
Pressure: 30.18"   Gusts: NA
Location:  30.9328°N, 92.1876°W
Report Text: KOPL 201435Z AUTO 01010KT 10SM OVC004 08/08 A3018 RMK AO2 T00810075
Loading
Personal Weather Stations






























Interactive Weather Map New forecast layout! Learn more

10-Day Weather Forecast

Advertisements
Track Severe Weather on mobile